sensor_id;sensor_type;location;lat;lon;timestamp;P1;durP1;ratioP1;P2;durP2;ratioP2
4839;SDS011;2434;48.486;7.964;2023-01-31T00:02:26;9.50;;;5.20;;
4839;SDS011;2434;48.486;7.964;2023-01-31T00:04:54;8.43;;;5.13;;
4839;SDS011;2434;48.486;7.964;2023-01-31T00:07:22;7.77;;;4.87;;
4839;SDS011;2434;48.486;7.964;2023-01-31T00:09:50;6.10;;;4.67;;
4839;SDS011;2434;48.486;7.964;2023-01-31T00:12:19;5.90;;;4.50;;
4839;SDS011;2434;48.486;7.964;2023-01-31T00:14:47;8.50;;;4.93;;
4839;SDS011;2434;48.486;7.964;2023-01-31T00:17:17;5.77;;;4.67;;
4839;SDS011;2434;48.486;7.964;2023-01-31T00:19:45;6.50;;;4.73;;
4839;SDS011;2434;48.486;7.964;2023-01-31T00:22:13;9.87;;;5.97;;
4839;SDS011;2434;48.486;7.964;2023-01-31T00:24:41;9.13;;;6.40;;
4839;SDS011;2434;48.486;7.964;2023-01-31T00:27:09;9.27;;;6.40;;
4839;SDS011;2434;48.486;7.964;2023-01-31T00:29:37;7.63;;;5.37;;
4839;SDS011;2434;48.486;7.964;2023-01-31T00:32:06;14.70;;;7.40;;
4839;SDS011;2434;48.486;7.964;2023-01-31T00:34:37;17.17;;;6.93;;
4839;SDS011;2434;48.486;7.964;2023-01-31T00:37:05;8.67;;;6.23;;
4839;SDS011;2434;48.486;7.964;2023-01-31T00:39:33;7.57;;;5.80;;
4839;SDS011;2434;48.486;7.964;2023-01-31T00:42:01;6.53;;;5.60;;
4839;SDS011;2434;48.486;7.964;2023-01-31T00:44:30;9.27;;;6.07;;
4839;SDS011;2434;48.486;7.964;2023-01-31T00:46:58;7.80;;;6.47;;
4839;SDS011;2434;48.486;7.964;2023-01-31T00:49:26;8.27;;;5.70;;
4839;SDS011;2434;48.486;7.964;2023-01-31T00:51:56;8.60;;;6.10;;
4839;SDS011;2434;48.486;7.964;2023-01-31T00:54:24;6.97;;;5.43;;
4839;SDS011;2434;48.486;7.964;2023-01-31T00:56:53;7.07;;;5.10;;
4839;SDS011;2434;48.486;7.964;2023-01-31T00:59:21;6.77;;;5.47;;
4839;SDS011;2434;48.486;7.964;2023-01-31T01:01:49;7.70;;;6.20;;
4839;SDS011;2434;48.486;7.964;2023-01-31T01:04:17;8.97;;;6.00;;
4839;SDS011;2434;48.486;7.964;2023-01-31T01:06:46;9.90;;;6.97;;
4839;SDS011;2434;48.486;7.964;2023-01-31T01:09:17;10.10;;;6.10;;
4839;SDS011;2434;48.486;7.964;2023-01-31T01:11:46;9.40;;;6.33;;
4839;SDS011;2434;48.486;7.964;2023-01-31T01:14:15;8.57;;;6.27;;
4839;SDS011;2434;48.486;7.964;2023-01-31T01:16:43;8.67;;;5.93;;
4839;SDS011;2434;48.486;7.964;2023-01-31T01:19:11;7.93;;;5.57;;
4839;SDS011;2434;48.486;7.964;2023-01-31T01:21:45;8.00;;;5.80;;
4839;SDS011;2434;48.486;7.964;2023-01-31T01:24:15;9.30;;;5.87;;
4839;SDS011;2434;48.486;7.964;2023-01-31T01:26:45;7.27;;;5.30;;
4839;SDS011;2434;48.486;7.964;2023-01-31T01:29:14;6.57;;;5.30;;
4839;SDS011;2434;48.486;7.964;2023-01-31T01:31:43;8.87;;;6.03;;
4839;SDS011;2434;48.486;7.964;2023-01-31T01:34:12;8.13;;;5.57;;
4839;SDS011;2434;48.486;7.964;2023-01-31T01:36:41;6.27;;;5.00;;
4839;SDS011;2434;48.486;7.964;2023-01-31T01:39:14;8.60;;;5.87;;
4839;SDS011;2434;48.486;7.964;2023-01-31T01:41:45;11.40;;;5.60;;
4839;SDS011;2434;48.486;7.964;2023-01-31T01:47:14;7.87;;;6.00;;
4839;SDS011;2434;48.486;7.964;2023-01-31T01:49:48;8.70;;;5.53;;
4839;SDS011;2434;48.486;7.964;2023-01-31T01:52:21;8.93;;;5.27;;
4839;SDS011;2434;48.486;7.964;2023-01-31T01:54:53;6.60;;;5.13;;
4839;SDS011;2434;48.486;7.964;2023-01-31T01:57:27;7.30;;;5.60;;
4839;SDS011;2434;48.486;7.964;2023-01-31T02:00:00;7.93;;;4.80;;
4839;SDS011;2434;48.486;7.964;2023-01-31T02:02:39;7.90;;;5.20;;
4839;SDS011;2434;48.486;7.964;2023-01-31T02:05:10;7.10;;;4.80;;
4839;SDS011;2434;48.486;7.964;2023-01-31T02:07:42;7.43;;;4.90;;
4839;SDS011;2434;48.486;7.964;2023-01-31T02:10:12;8.60;;;5.93;;
4839;SDS011;2434;48.486;7.964;2023-01-31T02:12:48;8.27;;;5.47;;
4839;SDS011;2434;48.486;7.964;2023-01-31T02:15:17;8.13;;;5.40;;
4839;SDS011;2434;48.486;7.964;2023-01-31T02:17:46;10.90;;;5.33;;
4839;SDS011;2434;48.486;7.964;2023-01-31T02:23:37;6.63;;;5.27;;
4839;SDS011;2434;48.486;7.964;2023-01-31T02:26:26;9.47;;;5.20;;
4839;SDS011;2434;48.486;7.964;2023-01-31T02:29:36;8.83;;;6.77;;
4839;SDS011;2434;48.486;7.964;2023-01-31T02:36:13;6.20;;;4.80;;
4839;SDS011;2434;48.486;7.964;2023-01-31T02:38:54;7.60;;;4.80;;
4839;SDS011;2434;48.486;7.964;2023-01-31T02:41:35;7.03;;;5.33;;
4839;SDS011;2434;48.486;7.964;2023-01-31T02:44:12;7.13;;;5.80;;
4839;SDS011;2434;48.486;7.964;2023-01-31T02:47:05;5.73;;;4.57;;
4839;SDS011;2434;48.486;7.964;2023-01-31T02:49:43;6.20;;;4.93;;
4839;SDS011;2434;48.486;7.964;2023-01-31T02:52:19;7.53;;;5.40;;
4839;SDS011;2434;48.486;7.964;2023-01-31T02:55:01;7.40;;;5.57;;
4839;SDS011;2434;48.486;7.964;2023-01-31T02:57:52;6.40;;;5.00;;
4839;SDS011;2434;48.486;7.964;2023-01-31T03:00:23;9.50;;;5.83;;
4839;SDS011;2434;48.486;7.964;2023-01-31T03:02:52;9.27;;;5.97;;
4839;SDS011;2434;48.486;7.964;2023-01-31T03:05:21;10.83;;;5.20;;
4839;SDS011;2434;48.486;7.964;2023-01-31T03:07:53;8.37;;;6.03;;
4839;SDS011;2434;48.486;7.964;2023-01-31T03:10:26;10.50;;;6.07;;
4839;SDS011;2434;48.486;7.964;2023-01-31T03:16:05;7.43;;;5.80;;
4839;SDS011;2434;48.486;7.964;2023-01-31T03:19:02;6.10;;;5.50;;
4839;SDS011;2434;48.486;7.964;2023-01-31T03:21:41;8.10;;;5.60;;
4839;SDS011;2434;48.486;7.964;2023-01-31T03:24:14;7.43;;;5.80;;
4839;SDS011;2434;48.486;7.964;2023-01-31T03:26:46;11.00;;;6.07;;
4839;SDS011;2434;48.486;7.964;2023-01-31T03:29:15;11.40;;;6.33;;
4839;SDS011;2434;48.486;7.964;2023-01-31T03:35:32;8.43;;;6.30;;
4839;SDS011;2434;48.486;7.964;2023-01-31T03:38:03;8.50;;;5.97;;
4839;SDS011;2434;48.486;7.964;2023-01-31T03:40:39;6.13;;;4.63;;
4839;SDS011;2434;48.486;7.964;2023-01-31T03:43:14;9.90;;;5.80;;
4839;SDS011;2434;48.486;7.964;2023-01-31T03:45:48;8.40;;;5.70;;
4839;SDS011;2434;48.486;7.964;2023-01-31T03:48:21;9.40;;;6.17;;
4839;SDS011;2434;48.486;7.964;2023-01-31T03:50:56;10.40;;;6.30;;
4839;SDS011;2434;48.486;7.964;2023-01-31T03:53:28;7.37;;;5.67;;
4839;SDS011;2434;48.486;7.964;2023-01-31T03:56:01;8.30;;;5.90;;
4839;SDS011;2434;48.486;7.964;2023-01-31T03:58:35;10.50;;;6.67;;
4839;SDS011;2434;48.486;7.964;2023-01-31T04:01:09;10.53;;;6.80;;
4839;SDS011;2434;48.486;7.964;2023-01-31T04:03:42;10.17;;;5.90;;
4839;SDS011;2434;48.486;7.964;2023-01-31T04:06:13;10.30;;;6.10;;
4839;SDS011;2434;48.486;7.964;2023-01-31T04:08:42;9.63;;;7.30;;
4839;SDS011;2434;48.486;7.964;2023-01-31T04:11:12;9.00;;;6.67;;
4839;SDS011;2434;48.486;7.964;2023-01-31T04:13:41;9.63;;;6.33;;
4839;SDS011;2434;48.486;7.964;2023-01-31T04:16:10;8.03;;;5.83;;
4839;SDS011;2434;48.486;7.964;2023-01-31T04:18:38;11.60;;;7.17;;
4839;SDS011;2434;48.486;7.964;2023-01-31T04:21:06;10.83;;;6.67;;
4839;SDS011;2434;48.486;7.964;2023-01-31T04:23:36;9.70;;;6.90;;
4839;SDS011;2434;48.486;7.964;2023-01-31T04:26:04;10.93;;;6.60;;
4839;SDS011;2434;48.486;7.964;2023-01-31T04:28:33;11.03;;;7.20;;
4839;SDS011;2434;48.486;7.964;2023-01-31T04:31:02;10.63;;;6.73;;
4839;SDS011;2434;48.486;7.964;2023-01-31T04:33:30;13.67;;;7.20;;
4839;SDS011;2434;48.486;7.964;2023-01-31T04:35:58;11.93;;;8.43;;
4839;SDS011;2434;48.486;7.964;2023-01-31T04:38:26;9.10;;;6.53;;
4839;SDS011;2434;48.486;7.964;2023-01-31T04:40:55;12.40;;;6.43;;
4839;SDS011;2434;48.486;7.964;2023-01-31T04:43:23;9.93;;;6.70;;
4839;SDS011;2434;48.486;7.964;2023-01-31T04:45:52;8.90;;;7.07;;
4839;SDS011;2434;48.486;7.964;2023-01-31T04:48:20;10.40;;;6.23;;
4839;SDS011;2434;48.486;7.964;2023-01-31T04:50:49;10.83;;;7.37;;
4839;SDS011;2434;48.486;7.964;2023-01-31T04:53:17;11.03;;;7.30;;
4839;SDS011;2434;48.486;7.964;2023-01-31T04:55:47;9.37;;;6.47;;
4839;SDS011;2434;48.486;7.964;2023-01-31T04:58:15;12.83;;;7.57;;
4839;SDS011;2434;48.486;7.964;2023-01-31T05:00:44;10.33;;;6.97;;
4839;SDS011;2434;48.486;7.964;2023-01-31T05:03:13;9.50;;;6.53;;
4839;SDS011;2434;48.486;7.964;2023-01-31T05:05:42;9.53;;;6.90;;
4839;SDS011;2434;48.486;7.964;2023-01-31T05:08:10;14.63;;;7.73;;
4839;SDS011;2434;48.486;7.964;2023-01-31T05:10:38;9.10;;;6.33;;
4839;SDS011;2434;48.486;7.964;2023-01-31T05:13:08;10.80;;;6.53;;
4839;SDS011;2434;48.486;7.964;2023-01-31T05:15:37;10.43;;;6.80;;
4839;SDS011;2434;48.486;7.964;2023-01-31T05:18:07;10.07;;;7.20;;
4839;SDS011;2434;48.486;7.964;2023-01-31T05:20:37;12.20;;;7.13;;
4839;SDS011;2434;48.486;7.964;2023-01-31T05:23:06;10.80;;;7.20;;
4839;SDS011;2434;48.486;7.964;2023-01-31T05:25:35;17.07;;;7.57;;
4839;SDS011;2434;48.486;7.964;2023-01-31T05:28:04;11.20;;;7.77;;
4839;SDS011;2434;48.486;7.964;2023-01-31T05:30:32;11.63;;;7.43;;
4839;SDS011;2434;48.486;7.964;2023-01-31T05:33:01;10.73;;;6.90;;
4839;SDS011;2434;48.486;7.964;2023-01-31T05:35:30;13.50;;;8.53;;
4839;SDS011;2434;48.486;7.964;2023-01-31T05:37:59;20.13;;;8.43;;
4839;SDS011;2434;48.486;7.964;2023-01-31T05:40:27;19.00;;;10.27;;
4839;SDS011;2434;48.486;7.964;2023-01-31T05:42:57;17.50;;;9.13;;
4839;SDS011;2434;48.486;7.964;2023-01-31T05:45:27;14.90;;;9.17;;
4839;SDS011;2434;48.486;7.964;2023-01-31T05:47:56;18.37;;;9.87;;
4839;SDS011;2434;48.486;7.964;2023-01-31T05:50:25;13.20;;;7.50;;
4839;SDS011;2434;48.486;7.964;2023-01-31T05:52:54;8.63;;;7.30;;
4839;SDS011;2434;48.486;7.964;2023-01-31T05:55:27;11.03;;;7.50;;
4839;SDS011;2434;48.486;7.964;2023-01-31T05:57:56;13.23;;;7.90;;
4839;SDS011;2434;48.486;7.964;2023-01-31T06:00:26;12.53;;;7.53;;
4839;SDS011;2434;48.486;7.964;2023-01-31T06:02:55;8.97;;;7.37;;
4839;SDS011;2434;48.486;7.964;2023-01-31T06:05:25;9.70;;;7.33;;
4839;SDS011;2434;48.486;7.964;2023-01-31T06:07:54;11.43;;;6.67;;
4839;SDS011;2434;48.486;7.964;2023-01-31T06:10:22;11.53;;;7.53;;
4839;SDS011;2434;48.486;7.964;2023-01-31T06:12:52;9.67;;;7.40;;
4839;SDS011;2434;48.486;7.964;2023-01-31T06:15:20;14.50;;;7.73;;
4839;SDS011;2434;48.486;7.964;2023-01-31T06:17:48;16.30;;;8.10;;
4839;SDS011;2434;48.486;7.964;2023-01-31T06:20:16;11.90;;;7.90;;
4839;SDS011;2434;48.486;7.964;2023-01-31T06:22:44;15.77;;;8.53;;
4839;SDS011;2434;48.486;7.964;2023-01-31T06:25:13;10.80;;;7.50;;
4839;SDS011;2434;48.486;7.964;2023-01-31T06:27:41;9.50;;;6.93;;
4839;SDS011;2434;48.486;7.964;2023-01-31T06:30:11;14.37;;;7.50;;
4839;SDS011;2434;48.486;7.964;2023-01-31T06:32:40;12.03;;;8.00;;
4839;SDS011;2434;48.486;7.964;2023-01-31T06:35:08;12.30;;;7.50;;
4839;SDS011;2434;48.486;7.964;2023-01-31T06:37:36;10.53;;;7.10;;
4839;SDS011;2434;48.486;7.964;2023-01-31T06:40:05;9.90;;;7.17;;
4839;SDS011;2434;48.486;7.964;2023-01-31T06:42:33;13.60;;;8.10;;
4839;SDS011;2434;48.486;7.964;2023-01-31T06:45:02;11.20;;;7.23;;
4839;SDS011;2434;48.486;7.964;2023-01-31T06:47:32;12.73;;;8.03;;
4839;SDS011;2434;48.486;7.964;2023-01-31T06:50:00;13.53;;;7.40;;
4839;SDS011;2434;48.486;7.964;2023-01-31T06:52:28;12.53;;;7.77;;
4839;SDS011;2434;48.486;7.964;2023-01-31T06:54:56;15.40;;;8.83;;
4839;SDS011;2434;48.486;7.964;2023-01-31T06:57:24;15.93;;;8.47;;
4839;SDS011;2434;48.486;7.964;2023-01-31T06:59:52;13.37;;;8.33;;
4839;SDS011;2434;48.486;7.964;2023-01-31T07:02:21;13.47;;;7.70;;
4839;SDS011;2434;48.486;7.964;2023-01-31T07:04:50;11.77;;;8.20;;
4839;SDS011;2434;48.486;7.964;2023-01-31T07:07:19;15.30;;;8.40;;
4839;SDS011;2434;48.486;7.964;2023-01-31T07:09:47;16.57;;;7.87;;
4839;SDS011;2434;48.486;7.964;2023-01-31T07:12:15;13.13;;;8.10;;
4839;SDS011;2434;48.486;7.964;2023-01-31T07:14:43;12.90;;;7.80;;
4839;SDS011;2434;48.486;7.964;2023-01-31T07:17:12;20.80;;;9.13;;
4839;SDS011;2434;48.486;7.964;2023-01-31T07:19:40;13.57;;;8.53;;
4839;SDS011;2434;48.486;7.964;2023-01-31T07:22:09;18.53;;;8.77;;
4839;SDS011;2434;48.486;7.964;2023-01-31T07:24:37;12.87;;;8.57;;
4839;SDS011;2434;48.486;7.964;2023-01-31T07:27:05;13.07;;;8.13;;
4839;SDS011;2434;48.486;7.964;2023-01-31T07:29:34;14.07;;;9.27;;
4839;SDS011;2434;48.486;7.964;2023-01-31T07:32:03;10.90;;;7.23;;
4839;SDS011;2434;48.486;7.964;2023-01-31T07:34:32;14.60;;;8.20;;
4839;SDS011;2434;48.486;7.964;2023-01-31T07:37:00;10.97;;;7.60;;
4839;SDS011;2434;48.486;7.964;2023-01-31T07:39:29;10.10;;;7.90;;
4839;SDS011;2434;48.486;7.964;2023-01-31T07:41:57;11.63;;;8.47;;
4839;SDS011;2434;48.486;7.964;2023-01-31T07:44:25;19.03;;;8.90;;
4839;SDS011;2434;48.486;7.964;2023-01-31T07:46:53;15.43;;;9.20;;
4839;SDS011;2434;48.486;7.964;2023-01-31T07:49:22;14.10;;;9.63;;
4839;SDS011;2434;48.486;7.964;2023-01-31T07:51:50;13.03;;;9.27;;
4839;SDS011;2434;48.486;7.964;2023-01-31T07:54:18;13.23;;;9.40;;
4839;SDS011;2434;48.486;7.964;2023-01-31T07:56:48;16.60;;;10.33;;
4839;SDS011;2434;48.486;7.964;2023-01-31T07:59:16;20.40;;;10.90;;
4839;SDS011;2434;48.486;7.964;2023-01-31T08:01:44;15.80;;;10.73;;
4839;SDS011;2434;48.486;7.964;2023-01-31T08:04:33;16.30;;;9.70;;
4839;SDS011;2434;48.486;7.964;2023-01-31T08:07:01;16.97;;;10.93;;
4839;SDS011;2434;48.486;7.964;2023-01-31T08:09:32;15.40;;;10.73;;
4839;SDS011;2434;48.486;7.964;2023-01-31T08:12:01;17.10;;;11.27;;
4839;SDS011;2434;48.486;7.964;2023-01-31T08:14:29;18.30;;;12.33;;
4839;SDS011;2434;48.486;7.964;2023-01-31T08:16:58;18.43;;;11.83;;
4839;SDS011;2434;48.486;7.964;2023-01-31T08:19:26;18.10;;;12.00;;
4839;SDS011;2434;48.486;7.964;2023-01-31T08:21:55;19.30;;;12.57;;
4839;SDS011;2434;48.486;7.964;2023-01-31T08:24:23;19.53;;;12.80;;
4839;SDS011;2434;48.486;7.964;2023-01-31T08:26:51;22.53;;;12.60;;
4839;SDS011;2434;48.486;7.964;2023-01-31T08:29:21;20.10;;;12.17;;
4839;SDS011;2434;48.486;7.964;2023-01-31T08:31:49;20.90;;;12.53;;
4839;SDS011;2434;48.486;7.964;2023-01-31T08:34:18;25.47;;;13.23;;
4839;SDS011;2434;48.486;7.964;2023-01-31T08:36:48;17.60;;;12.00;;
4839;SDS011;2434;48.486;7.964;2023-01-31T08:39:17;22.00;;;13.23;;
4839;SDS011;2434;48.486;7.964;2023-01-31T08:41:45;22.67;;;14.03;;
4839;SDS011;2434;48.486;7.964;2023-01-31T08:44:13;25.60;;;15.33;;
4839;SDS011;2434;48.486;7.964;2023-01-31T08:46:43;22.60;;;13.57;;
4839;SDS011;2434;48.486;7.964;2023-01-31T08:49:12;23.33;;;14.40;;
4839;SDS011;2434;48.486;7.964;2023-01-31T08:51:40;23.30;;;15.03;;
4839;SDS011;2434;48.486;7.964;2023-01-31T08:54:08;24.40;;;16.40;;
4839;SDS011;2434;48.486;7.964;2023-01-31T08:56:38;28.40;;;16.07;;
4839;SDS011;2434;48.486;7.964;2023-01-31T08:59:08;23.70;;;15.97;;
4839;SDS011;2434;48.486;7.964;2023-01-31T09:01:37;28.00;;;15.60;;
4839;SDS011;2434;48.486;7.964;2023-01-31T09:04:09;23.70;;;15.37;;
4839;SDS011;2434;48.486;7.964;2023-01-31T09:06:37;28.30;;;14.40;;
4839;SDS011;2434;48.486;7.964;2023-01-31T09:09:05;23.63;;;13.97;;
4839;SDS011;2434;48.486;7.964;2023-01-31T09:11:33;29.50;;;15.80;;
4839;SDS011;2434;48.486;7.964;2023-01-31T09:14:02;22.10;;;14.17;;
4839;SDS011;2434;48.486;7.964;2023-01-31T09:16:30;27.50;;;15.13;;
4839;SDS011;2434;48.486;7.964;2023-01-31T09:18:58;25.17;;;14.90;;
4839;SDS011;2434;48.486;7.964;2023-01-31T09:21:28;24.43;;;14.57;;
4839;SDS011;2434;48.486;7.964;2023-01-31T09:23:57;28.70;;;15.30;;
4839;SDS011;2434;48.486;7.964;2023-01-31T09:26:27;26.60;;;15.67;;
4839;SDS011;2434;48.486;7.964;2023-01-31T09:28:56;27.53;;;15.73;;
4839;SDS011;2434;48.486;7.964;2023-01-31T09:31:26;31.50;;;16.30;;
4839;SDS011;2434;48.486;7.964;2023-01-31T09:33:56;27.23;;;15.90;;
4839;SDS011;2434;48.486;7.964;2023-01-31T09:36:24;26.00;;;15.53;;
4839;SDS011;2434;48.486;7.964;2023-01-31T09:38:55;24.67;;;15.33;;
4839;SDS011;2434;48.486;7.964;2023-01-31T09:41:25;26.07;;;16.90;;
4839;SDS011;2434;48.486;7.964;2023-01-31T09:43:59;27.03;;;15.40;;
4839;SDS011;2434;48.486;7.964;2023-01-31T09:46:31;24.50;;;15.23;;
4839;SDS011;2434;48.486;7.964;2023-01-31T09:49:04;24.53;;;14.60;;
4839;SDS011;2434;48.486;7.964;2023-01-31T09:51:36;24.90;;;16.17;;
4839;SDS011;2434;48.486;7.964;2023-01-31T09:54:08;22.70;;;14.70;;
4839;SDS011;2434;48.486;7.964;2023-01-31T09:56:50;28.77;;;16.77;;
4839;SDS011;2434;48.486;7.964;2023-01-31T09:59:28;26.20;;;16.00;;
4839;SDS011;2434;48.486;7.964;2023-01-31T10:02:09;23.80;;;14.43;;
4839;SDS011;2434;48.486;7.964;2023-01-31T10:04:48;25.03;;;15.47;;
4839;SDS011;2434;48.486;7.964;2023-01-31T10:07:29;26.33;;;16.17;;
4839;SDS011;2434;48.486;7.964;2023-01-31T10:10:04;31.90;;;14.97;;
4839;SDS011;2434;48.486;7.964;2023-01-31T10:12:41;26.50;;;15.70;;
4839;SDS011;2434;48.486;7.964;2023-01-31T10:15:15;28.40;;;14.30;;
4839;SDS011;2434;48.486;7.964;2023-01-31T10:17:50;23.73;;;14.90;;
4839;SDS011;2434;48.486;7.964;2023-01-31T10:20:26;28.97;;;15.93;;
4839;SDS011;2434;48.486;7.964;2023-01-31T10:23:00;25.20;;;15.20;;
4839;SDS011;2434;48.486;7.964;2023-01-31T10:25:36;24.87;;;13.93;;
4839;SDS011;2434;48.486;7.964;2023-01-31T10:28:12;24.40;;;15.57;;
4839;SDS011;2434;48.486;7.964;2023-01-31T10:30:43;27.00;;;15.97;;
4839;SDS011;2434;48.486;7.964;2023-01-31T10:33:18;26.30;;;16.13;;
4839;SDS011;2434;48.486;7.964;2023-01-31T10:35:51;23.43;;;15.27;;
4839;SDS011;2434;48.486;7.964;2023-01-31T10:38:23;27.30;;;16.90;;
4839;SDS011;2434;48.486;7.964;2023-01-31T10:40:58;25.83;;;15.10;;
4839;SDS011;2434;48.486;7.964;2023-01-31T10:43:36;26.60;;;15.20;;
4839;SDS011;2434;48.486;7.964;2023-01-31T10:46:07;25.07;;;14.90;;
4839;SDS011;2434;48.486;7.964;2023-01-31T10:48:38;25.70;;;15.67;;
4839;SDS011;2434;48.486;7.964;2023-01-31T10:51:15;26.07;;;15.33;;
4839;SDS011;2434;48.486;7.964;2023-01-31T10:54:04;27.60;;;15.27;;
4839;SDS011;2434;48.486;7.964;2023-01-31T10:56:44;24.43;;;13.30;;
4839;SDS011;2434;48.486;7.964;2023-01-31T10:59:15;31.20;;;14.27;;
4839;SDS011;2434;48.486;7.964;2023-01-31T11:01:49;24.83;;;12.80;;
4839;SDS011;2434;48.486;7.964;2023-01-31T11:04:21;17.90;;;11.00;;
4839;SDS011;2434;48.486;7.964;2023-01-31T11:06:52;21.17;;;12.90;;
4839;SDS011;2434;48.486;7.964;2023-01-31T11:09:21;18.67;;;11.57;;
4839;SDS011;2434;48.486;7.964;2023-01-31T11:11:56;19.30;;;12.73;;
4839;SDS011;2434;48.486;7.964;2023-01-31T11:14:25;17.03;;;11.33;;
4839;SDS011;2434;48.486;7.964;2023-01-31T11:16:56;21.60;;;12.40;;
4839;SDS011;2434;48.486;7.964;2023-01-31T11:19:32;16.97;;;10.97;;
4839;SDS011;2434;48.486;7.964;2023-01-31T11:22:03;17.30;;;11.10;;
4839;SDS011;2434;48.486;7.964;2023-01-31T11:24:33;18.50;;;11.23;;
4839;SDS011;2434;48.486;7.964;2023-01-31T11:27:08;17.77;;;10.40;;
4839;SDS011;2434;48.486;7.964;2023-01-31T11:29:39;17.37;;;10.83;;
4839;SDS011;2434;48.486;7.964;2023-01-31T11:32:14;18.60;;;10.77;;
4839;SDS011;2434;48.486;7.964;2023-01-31T11:34:53;13.47;;;9.37;;
4839;SDS011;2434;48.486;7.964;2023-01-31T11:37:23;17.57;;;10.57;;
4839;SDS011;2434;48.486;7.964;2023-01-31T11:39:55;19.83;;;10.13;;
4839;SDS011;2434;48.486;7.964;2023-01-31T11:42:26;15.13;;;9.47;;
4839;SDS011;2434;48.486;7.964;2023-01-31T11:44:58;21.03;;;10.60;;
4839;SDS011;2434;48.486;7.964;2023-01-31T11:47:31;20.70;;;10.57;;
4839;SDS011;2434;48.486;7.964;2023-01-31T11:50:06;16.27;;;10.47;;
4839;SDS011;2434;48.486;7.964;2023-01-31T11:52:45;15.83;;;9.53;;
4839;SDS011;2434;48.486;7.964;2023-01-31T11:55:20;16.40;;;9.10;;
4839;SDS011;2434;48.486;7.964;2023-01-31T11:57:53;16.40;;;8.93;;
4839;SDS011;2434;48.486;7.964;2023-01-31T12:00:25;15.43;;;9.67;;
4839;SDS011;2434;48.486;7.964;2023-01-31T12:02:58;15.73;;;9.13;;
4839;SDS011;2434;48.486;7.964;2023-01-31T12:05:34;22.30;;;10.70;;
4839;SDS011;2434;48.486;7.964;2023-01-31T12:08:08;17.43;;;9.47;;
4839;SDS011;2434;48.486;7.964;2023-01-31T12:10:56;13.73;;;7.93;;
4839;SDS011;2434;48.486;7.964;2023-01-31T12:13:25;14.60;;;7.53;;
4839;SDS011;2434;48.486;7.964;2023-01-31T12:15:55;12.20;;;7.77;;
4839;SDS011;2434;48.486;7.964;2023-01-31T12:18:38;17.80;;;7.87;;
4839;SDS011;2434;48.486;7.964;2023-01-31T12:21:21;14.43;;;8.70;;
4839;SDS011;2434;48.486;7.964;2023-01-31T12:24:02;13.13;;;7.17;;
4839;SDS011;2434;48.486;7.964;2023-01-31T12:26:42;14.00;;;7.67;;
4839;SDS011;2434;48.486;7.964;2023-01-31T12:29:27;11.20;;;6.80;;
4839;SDS011;2434;48.486;7.964;2023-01-31T12:32:19;15.90;;;7.47;;
4839;SDS011;2434;48.486;7.964;2023-01-31T12:35:01;12.37;;;6.97;;
4839;SDS011;2434;48.486;7.964;2023-01-31T12:37:45;13.30;;;7.20;;
4839;SDS011;2434;48.486;7.964;2023-01-31T12:40:26;11.00;;;6.90;;
4839;SDS011;2434;48.486;7.964;2023-01-31T12:43:02;9.10;;;6.77;;
4839;SDS011;2434;48.486;7.964;2023-01-31T12:45:41;11.47;;;5.90;;
4839;SDS011;2434;48.486;7.964;2023-01-31T12:48:26;10.90;;;6.97;;
4839;SDS011;2434;48.486;7.964;2023-01-31T12:51:13;11.70;;;6.20;;
4839;SDS011;2434;48.486;7.964;2023-01-31T12:53:54;17.43;;;7.30;;
4839;SDS011;2434;48.486;7.964;2023-01-31T12:56:42;10.80;;;7.00;;
4839;SDS011;2434;48.486;7.964;2023-01-31T12:59:21;11.90;;;7.50;;
4839;SDS011;2434;48.486;7.964;2023-01-31T13:02:01;15.90;;;7.93;;
4839;SDS011;2434;48.486;7.964;2023-01-31T13:04:44;17.07;;;8.37;;
4839;SDS011;2434;48.486;7.964;2023-01-31T13:07:17;15.03;;;8.50;;
4839;SDS011;2434;48.486;7.964;2023-01-31T13:09:50;12.83;;;7.43;;
4839;SDS011;2434;48.486;7.964;2023-01-31T13:12:22;16.73;;;7.30;;
4839;SDS011;2434;48.486;7.964;2023-01-31T13:14:55;15.93;;;7.00;;
4839;SDS011;2434;48.486;7.964;2023-01-31T13:17:32;11.63;;;7.53;;
4839;SDS011;2434;48.486;7.964;2023-01-31T13:20:06;11.30;;;7.60;;
4839;SDS011;2434;48.486;7.964;2023-01-31T13:22:55;8.67;;;5.97;;
4839;SDS011;2434;48.486;7.964;2023-01-31T13:25:32;10.50;;;6.90;;
4839;SDS011;2434;48.486;7.964;2023-01-31T13:28:05;13.97;;;8.00;;
4839;SDS011;2434;48.486;7.964;2023-01-31T13:30:40;12.20;;;6.77;;
4839;SDS011;2434;48.486;7.964;2023-01-31T13:33:20;13.77;;;6.40;;
4839;SDS011;2434;48.486;7.964;2023-01-31T13:35:58;11.77;;;6.77;;
4839;SDS011;2434;48.486;7.964;2023-01-31T13:38:34;15.30;;;6.63;;
4839;SDS011;2434;48.486;7.964;2023-01-31T13:41:07;13.27;;;6.43;;
4839;SDS011;2434;48.486;7.964;2023-01-31T13:43:39;14.10;;;6.10;;
4839;SDS011;2434;48.486;7.964;2023-01-31T13:46:07;9.63;;;5.80;;
4839;SDS011;2434;48.486;7.964;2023-01-31T13:48:40;12.60;;;6.50;;
4839;SDS011;2434;48.486;7.964;2023-01-31T13:51:14;10.67;;;6.00;;
4839;SDS011;2434;48.486;7.964;2023-01-31T13:53:46;9.33;;;6.10;;
4839;SDS011;2434;48.486;7.964;2023-01-31T13:56:19;9.07;;;5.90;;
4839;SDS011;2434;48.486;7.964;2023-01-31T13:58:51;13.40;;;5.60;;
4839;SDS011;2434;48.486;7.964;2023-01-31T14:01:22;12.17;;;5.10;;
4839;SDS011;2434;48.486;7.964;2023-01-31T14:06:53;11.30;;;5.60;;
4839;SDS011;2434;48.486;7.964;2023-01-31T14:09:37;8.87;;;4.90;;
4839;SDS011;2434;48.486;7.964;2023-01-31T14:14:59;9.53;;;4.43;;
4839;SDS011;2434;48.486;7.964;2023-01-31T14:20:29;6.13;;;4.70;;
4839;SDS011;2434;48.486;7.964;2023-01-31T14:25:58;7.17;;;4.40;;
4839;SDS011;2434;48.486;7.964;2023-01-31T14:28:26;8.73;;;4.20;;
4839;SDS011;2434;48.486;7.964;2023-01-31T14:30:54;10.17;;;5.40;;
4839;SDS011;2434;48.486;7.964;2023-01-31T14:33:24;5.20;;;4.00;;
4839;SDS011;2434;48.486;7.964;2023-01-31T14:36:06;8.10;;;4.87;;
4839;SDS011;2434;48.486;7.964;2023-01-31T14:39:19;8.40;;;4.63;;
4839;SDS011;2434;48.486;7.964;2023-01-31T14:42:17;8.53;;;4.80;;
4839;SDS011;2434;48.486;7.964;2023-01-31T14:45:00;8.50;;;4.73;;
4839;SDS011;2434;48.486;7.964;2023-01-31T14:47:46;10.40;;;4.40;;
4839;SDS011;2434;48.486;7.964;2023-01-31T14:50:34;6.93;;;4.17;;
4839;SDS011;2434;48.486;7.964;2023-01-31T14:53:16;8.83;;;4.80;;
4839;SDS011;2434;48.486;7.964;2023-01-31T14:56:08;6.50;;;4.40;;
4839;SDS011;2434;48.486;7.964;2023-01-31T14:58:53;12.43;;;5.23;;
4839;SDS011;2434;48.486;7.964;2023-01-31T15:01:21;7.80;;;4.40;;
4839;SDS011;2434;48.486;7.964;2023-01-31T15:04:00;10.17;;;5.33;;
4839;SDS011;2434;48.486;7.964;2023-01-31T15:06:30;11.93;;;5.67;;
4839;SDS011;2434;48.486;7.964;2023-01-31T15:09:17;10.30;;;5.20;;
4839;SDS011;2434;48.486;7.964;2023-01-31T15:12:00;10.43;;;5.20;;
4839;SDS011;2434;48.486;7.964;2023-01-31T15:14:34;13.37;;;5.60;;
4839;SDS011;2434;48.486;7.964;2023-01-31T15:17:09;10.37;;;5.50;;
4839;SDS011;2434;48.486;7.964;2023-01-31T15:20:11;9.87;;;5.30;;
4839;SDS011;2434;48.486;7.964;2023-01-31T15:22:43;8.60;;;4.97;;
4839;SDS011;2434;48.486;7.964;2023-01-31T15:25:19;11.70;;;4.90;;
4839;SDS011;2434;48.486;7.964;2023-01-31T15:27:53;15.07;;;6.07;;
4839;SDS011;2434;48.486;7.964;2023-01-31T15:30:23;9.53;;;5.90;;
4839;SDS011;2434;48.486;7.964;2023-01-31T15:32:55;9.70;;;4.60;;
4839;SDS011;2434;48.486;7.964;2023-01-31T15:35:26;10.63;;;5.63;;
4839;SDS011;2434;48.486;7.964;2023-01-31T15:37:58;8.40;;;5.10;;
4839;SDS011;2434;48.486;7.964;2023-01-31T15:40:31;8.50;;;4.97;;
4839;SDS011;2434;48.486;7.964;2023-01-31T15:43:16;11.20;;;5.23;;
4839;SDS011;2434;48.486;7.964;2023-01-31T15:45:48;10.23;;;6.00;;
4839;SDS011;2434;48.486;7.964;2023-01-31T15:48:18;10.20;;;5.37;;
4839;SDS011;2434;48.486;7.964;2023-01-31T15:50:48;9.47;;;4.70;;
4839;SDS011;2434;48.486;7.964;2023-01-31T15:53:19;10.87;;;5.30;;
4839;SDS011;2434;48.486;7.964;2023-01-31T15:55:51;11.67;;;5.83;;
4839;SDS011;2434;48.486;7.964;2023-01-31T15:58:24;12.07;;;5.00;;
4839;SDS011;2434;48.486;7.964;2023-01-31T16:00:54;8.50;;;4.60;;
4839;SDS011;2434;48.486;7.964;2023-01-31T16:03:24;11.70;;;5.93;;
4839;SDS011;2434;48.486;7.964;2023-01-31T16:05:55;12.87;;;5.70;;